Time;durP1;ratioP1;P1;durP2;ratioP2;P2;SDS_P1;SDS_P2;PMS_P1;PMS_P2;Temp;Humidity;BMP_temperature;BMP_pressure;BME280_temperature;BME280_humidity;BME280_pressure;Samples;Min_cycle;Max_cycle;Signal;HPM_P1;HPM_P2
2023/07/19 00:01:14;;;;;;;11.45;8.10;;;;;;;22.33;100.00;95997.69;5014746;28;20037;-79
2023/07/19 00:03:39;;;;;;;13.70;7.88;;;;;;;22.39;100.00;95991.38;5023725;28;20028;-79
2023/07/19 00:06:05;;;;;;;13.07;8.40;;;;;;;22.48;100.00;95992.63;5029934;28;20399;-80
2023/07/19 00:08:31;;;;;;;11.95;7.80;;;;;;;22.41;100.00;95993.84;5029780;28;20025;-79
2023/07/19 00:10:56;;;;;;;12.23;7.57;;;;;;;22.42;100.00;95984.72;5033057;28;20036;-79
2023/07/19 00:13:23;;;;;;;14.20;8.55;;;;;;;22.36;100.00;95976.59;5025584;28;20513;-79
2023/07/19 00:15:49;;;;;;;11.05;7.50;;;;;;;22.42;100.00;95974.81;5029883;28;20025;-79
2023/07/19 00:18:15;;;;;;;11.48;6.97;;;;;;;22.30;100.00;95966.84;5042744;28;20119;-80
2023/07/19 00:20:40;;;;;;;11.98;7.80;;;;;;;21.95;100.00;95968.81;5031793;28;20021;-80
2023/07/19 00:23:06;;;;;;;13.85;8.50;;;;;;;21.97;100.00;95972.06;5015517;28;20026;-80
2023/07/19 00:25:31;;;;;;;11.65;7.70;;;;;;;21.82;100.00;95976.03;5027389;28;20498;-80
2023/07/19 00:27:57;;;;;;;12.10;8.60;;;;;;;21.95;100.00;95976.84;5030580;28;20052;-80
2023/07/19 00:30:23;;;;;;;12.30;8.07;;;;;;;22.16;100.00;95978.88;5017157;28;20051;-80
2023/07/19 00:32:48;;;;;;;12.50;7.95;;;;;;;22.46;100.00;95975.97;5026386;28;20060;-79
2023/07/19 00:35:14;;;;;;;11.55;7.50;;;;;;;22.36;100.00;95978.47;5035112;28;20029;-80
2023/07/19 00:37:40;;;;;;;11.07;7.38;;;;;;;22.43;100.00;95970.28;5014792;28;20369;-80
2023/07/19 00:40:06;;;;;;;12.05;8.40;;;;;;;22.18;100.00;95965.28;5016844;28;20033;-80
2023/07/19 00:42:32;;;;;;;12.52;8.15;;;;;;;22.07;100.00;95969.59;5030102;28;20033;-79
2023/07/19 00:44:57;;;;;;;11.85;7.65;;;;;;;21.82;100.00;95973.38;5030573;28;20059;-80
2023/07/19 00:47:23;;;;;;;11.52;7.85;;;;;;;21.72;100.00;95975.03;5012680;28;20022;-80
2023/07/19 00:49:49;;;;;;;12.23;7.90;;;;;;;21.71;100.00;95979.56;5030131;28;20036;-80
2023/07/19 00:52:15;;;;;;;14.45;8.27;;;;;;;21.78;100.00;95972.22;5047113;28;20028;-80
2023/07/19 00:54:40;;;;;;;12.93;7.88;;;;;;;22.08;100.00;95966.66;5012597;28;20113;-80
2023/07/19 00:57:07;;;;;;;12.20;7.80;;;;;;;22.11;100.00;95965.38;5017016;28;20025;-79
2023/07/19 00:59:34;;;;;;;13.30;8.30;;;;;;;22.13;100.00;95965.94;5041453;28;20049;-80
2023/07/19 01:02:00;;;;;;;12.13;7.90;;;;;;;21.96;100.00;95959.72;5028771;28;20041;-80
2023/07/19 01:04:27;;;;;;;10.55;6.97;;;;;;;21.83;100.00;95974.16;5023463;28;20667;-80
2023/07/19 01:06:52;;;;;;;12.38;7.68;;;;;;;21.68;100.00;95963.97;5029632;28;20036;-80
2023/07/19 01:09:18;;;;;;;14.18;8.02;;;;;;;21.77;100.00;95977.81;5022188;28;20017;-80
2023/07/19 01:11:43;;;;;;;11.70;8.15;;;;;;;21.88;100.00;95959.03;5012349;28;20055;-79
2023/07/19 01:14:09;;;;;;;12.15;8.38;;;;;;;21.68;100.00;95963.97;5012385;28;20095;-80
2023/07/19 01:16:35;;;;;;;14.15;8.23;;;;;;;21.67;100.00;95964.22;5038006;28;20025;-80
2023/07/19 01:19:01;;;;;;;14.40;8.50;;;;;;;21.67;100.00;95965.03;5014274;28;20034;-80
2023/07/19 01:21:26;;;;;;;12.35;8.30;;;;;;;21.63;100.00;95958.53;5008826;28;20029;-80
2023/07/19 01:23:52;;;;;;;16.02;8.50;;;;;;;21.72;100.00;95965.13;5027801;28;20107;-80
2023/07/19 01:26:18;;;;;;;14.05;8.43;;;;;;;21.60;100.00;95967.03;5014830;28;20507;-80
2023/07/19 01:28:44;;;;;;;10.70;8.00;;;;;;;21.72;100.00;95958.97;5013051;28;20072;-80
2023/07/19 01:31:11;;;;;;;12.35;8.18;;;;;;;21.64;100.00;95966.31;5020954;28;20037;-81
2023/07/19 01:33:37;;;;;;;13.35;8.00;;;;;;;21.87;100.00;95968.13;5012791;28;20025;-80
2023/07/19 01:36:03;;;;;;;12.45;7.25;;;;;;;21.82;100.00;95959.16;5030911;28;20032;-80
2023/07/19 01:38:29;;;;;;;11.15;7.55;;;;;;;21.77;100.00;95951.84;5036709;28;20642;-80
2023/07/19 01:40:54;;;;;;;11.52;7.40;;;;;;;21.71;100.00;95958.16;5031272;28;20634;-79
2023/07/19 01:43:20;;;;;;;13.05;7.47;;;;;;;21.56;100.00;95965.84;5037197;28;20519;-80
2023/07/19 01:45:46;;;;;;;11.98;7.82;;;;;;;21.34;100.00;95966.47;5029192;28;20086;-80
2023/07/19 01:48:12;;;;;;;10.68;7.53;;;;;;;21.53;100.00;95963.63;5014136;28;20060;-79
2023/07/19 01:50:38;;;;;;;11.27;6.90;;;;;;;21.46;100.00;95970.97;5033822;28;20123;-80
2023/07/19 01:53:03;;;;;;;12.48;8.18;;;;;;;21.54;100.00;95965.28;5022439;28;20037;-80
2023/07/19 01:55:30;;;;;;;12.02;8.18;;;;;;;21.82;100.00;95964.53;5026308;28;20606;-80
2023/07/19 01:57:55;;;;;;;12.57;8.05;;;;;;;21.97;100.00;95977.44;5015869;28;20033;-80
2023/07/19 02:00:21;;;;;;;15.50;8.38;;;;;;;22.08;100.00;95969.34;5012262;28;20498;-80
2023/07/19 02:02:47;;;;;;;13.27;8.00;;;;;;;21.75;100.00;95978.03;5027860;28;20158;-79
2023/07/19 02:05:13;;;;;;;11.90;8.13;;;;;;;21.62;100.00;95972.94;5010568;28;20029;-80
2023/07/19 02:07:38;;;;;;;15.05;7.60;;;;;;;21.56;100.00;95977.38;5011755;28;20032;-80
2023/07/19 02:10:05;;;;;;;12.48;8.30;;;;;;;21.68;100.00;95980.03;5023384;28;20025;-80
2023/07/19 02:12:30;;;;;;;14.05;8.25;;;;;;;21.85;100.00;95977.44;5030921;28;20359;-80
2023/07/19 02:14:56;;;;;;;13.98;8.73;;;;;;;21.87;100.00;95970.81;5020566;28;20032;-80
2023/07/19 02:17:22;;;;;;;11.32;7.18;;;;;;;22.06;100.00;95965.25;5027894;28;20033;-80
2023/07/19 02:19:47;;;;;;;13.90;8.18;;;;;;;22.23;100.00;95968.88;5029384;28;20045;-81
2023/07/19 02:22:15;;;;;;;12.20;7.60;;;;;;;22.04;100.00;95970.06;5038501;28;20023;-80
2023/07/19 02:24:41;;;;;;;10.90;7.20;;;;;;;22.16;100.00;95965.50;5031716;28;20053;-80
2023/07/19 02:27:07;;;;;;;10.65;7.25;;;;;;;22.14;100.00;95962.22;5028783;28;20397;-80
2023/07/19 02:29:33;;;;;;;11.13;7.07;;;;;;;22.10;100.00;95963.75;5011831;28;20104;-80
2023/07/19 02:31:58;;;;;;;10.65;7.38;;;;;;;22.05;100.00;95969.00;5035374;28;20017;-80
2023/07/19 02:34:24;;;;;;;11.55;7.65;;;;;;;22.01;100.00;95959.81;5027891;28;20018;-80
2023/07/19 02:36:50;;;;;;;12.05;7.20;;;;;;;22.09;100.00;95970.16;5009670;28;20028;-80
2023/07/19 02:39:20;;;;;;;16.63;7.70;;;;;;;22.09;100.00;95970.97;5031380;28;20029;-80
2023/07/19 02:41:45;;;;;;;11.35;7.75;;;;;;;21.83;100.00;95983.03;5018784;28;20071;-80
2023/07/19 02:44:11;;;;;;;10.82;6.90;;;;;;;21.76;100.00;95976.97;5012412;28;20025;-80
2023/07/19 02:46:38;;;;;;;12.48;7.28;;;;;;;21.69;100.00;95980.84;5024178;28;20045;-80
2023/07/19 02:49:04;;;;;;;13.60;7.50;;;;;;;21.64;100.00;95978.88;5020983;28;20060;-80
2023/07/19 02:51:29;;;;;;;11.05;7.28;;;;;;;21.74;100.00;95981.78;5035429;28;20091;-80
2023/07/19 02:54:02;;;;;;;14.00;7.68;;;;;;;21.76;100.00;95974.31;5022483;28;20025;-79
2023/07/19 02:56:27;;;;;;;11.77;7.03;;;;;;;21.69;100.00;95975.50;5027425;28;20552;-79
2023/07/19 02:58:53;;;;;;;11.07;7.70;;;;;;;21.92;100.00;95967.41;5020530;28;20033;-80
2023/07/19 03:01:19;;;;;;;11.15;6.90;;;;;;;21.96;100.00;95965.88;5019914;28;20502;-80
2023/07/19 03:03:44;;;;;;;10.68;7.00;;;;;;;21.70;100.00;95977.94;5027378;28;20095;-80
2023/07/19 03:06:10;;;;;;;10.27;7.05;;;;;;;21.97;100.00;95966.72;5028031;28;20037;-80
2023/07/19 03:08:38;;;;;;;10.60;7.15;;;;;;;21.99;100.00;95967.28;5012132;28;20025;-80
2023/07/19 03:11:06;;;;;;;11.27;6.78;;;;;;;22.05;100.00;95977.03;5014497;28;20026;-79
2023/07/19 03:13:32;;;;;;;13.98;6.95;;;;;;;22.05;100.00;95975.16;5011223;28;20074;-80
2023/07/19 03:15:57;;;;;;;11.32;6.90;;;;;;;21.85;100.00;95974.75;5028903;28;20120;-80
2023/07/19 03:18:23;;;;;;;9.65;6.03;;;;;;;21.95;100.00;95974.97;5011459;28;20112;-80
2023/07/19 03:20:57;;;;;;;10.45;6.57;;;;;;;21.55;100.00;95975.75;5036764;28;20630;-80
2023/07/19 03:23:23;;;;;;;31.45;7.22;;;;;;;20.98;100.00;95985.38;5010766;28;20026;-80
2023/07/19 03:25:49;;;;;;;10.77;6.43;;;;;;;21.08;100.00;95990.97;5018176;28;20703;-80
2023/07/19 03:28:14;;;;;;;12.85;7.63;;;;;;;20.90;100.00;95987.34;5010661;28;20048;-80
2023/07/19 03:30:40;;;;;;;12.40;6.50;;;;;;;20.98;100.00;95988.84;5027387;28;20037;-79
2023/07/19 03:33:05;;;;;;;11.48;7.10;;;;;;;21.29;100.00;95985.03;5019176;28;20033;-79
2023/07/19 03:35:31;;;;;;;13.38;6.55;;;;;;;21.63;100.00;95994.13;5027887;28;20036;-80
2023/07/19 03:37:57;;;;;;;10.88;6.95;;;;;;;21.67;100.00;95993.66;5027004;28;20029;-80
2023/07/19 03:40:22;;;;;;;10.88;6.15;;;;;;;21.77;100.00;95991.19;5017008;28;20025;-80
2023/07/19 03:42:48;;;;;;;8.82;6.40;;;;;;;21.71;100.00;95987.59;5010325;28;20032;-79
2023/07/19 03:45:14;;;;;;;10.82;6.75;;;;;;;21.60;100.00;95996.47;5013279;28;20664;-80
2023/07/19 03:47:40;;;;;;;11.32;6.70;;;;;;;21.48;100.00;95993.78;5038123;28;20670;-80
2023/07/19 03:50:06;;;;;;;12.32;6.70;;;;;;;21.43;100.00;96004.38;5011947;28;20029;-80
2023/07/19 03:52:32;;;;;;;9.60;7.13;;;;;;;21.58;100.00;96006.56;5002905;28;20060;-80
2023/07/19 03:54:58;;;;;;;13.50;7.45;;;;;;;21.41;100.00;96017.16;5038907;28;20812;-80
2023/07/19 03:57:29;;;;;;;12.20;7.95;;;;;;;21.06;100.00;96014.41;5009783;28;20076;-79
2023/07/19 03:59:55;;;;;;;14.05;8.65;;;;;;;20.77;100.00;96013.47;5015126;28;20173;-80
2023/07/19 04:02:22;;;;;;;14.43;8.18;;;;;;;21.18;100.00;96012.59;5014620;28;20052;-80
2023/07/19 04:04:48;;;;;;;13.00;8.07;;;;;;;21.25;100.00;96013.28;5005939;28;20399;-80
2023/07/19 04:07:14;;;;;;;11.02;8.02;;;;;;;21.14;100.00;96019.44;5017609;28;20025;-80
2023/07/19 04:09:40;;;;;;;14.32;8.98;;;;;;;21.12;100.00;96010.84;5013967;28;20051;-80
2023/07/19 04:12:06;;;;;;;13.68;7.70;;;;;;;21.13;100.00;96012.47;5018442;28;20065;-79
2023/07/19 04:14:32;;;;;;;10.80;7.03;;;;;;;21.31;100.00;96019.56;5028767;28;20036;-79
2023/07/19 04:16:57;;;;;;;11.68;7.30;;;;;;;21.26;100.00;96024.78;5035538;28;20033;-79
2023/07/19 04:19:23;;;;;;;13.65;7.32;;;;;;;21.40;100.00;96016.34;5017004;28;20752;-79
2023/07/19 04:21:49;;;;;;;11.90;6.43;;;;;;;21.41;100.00;96017.97;5015433;28;20021;-80
2023/07/19 04:24:15;;;;;;;9.98;6.63;;;;;;;21.50;100.00;96021.13;5023183;28;20060;-80
2023/07/19 04:26:45;;;;;;;9.65;7.07;;;;;;;21.69;100.00;96015.63;5030606;28;20025;-81
2023/07/19 04:29:11;;;;;;;11.57;7.30;;;;;;;21.25;100.00;96021.31;5031014;28;20557;-80
2023/07/19 04:31:36;;;;;;;10.50;6.72;;;;;;;20.97;100.00;96015.81;5026667;28;20041;-79
2023/07/19 04:34:02;;;;;;;11.55;7.25;;;;;;;21.06;100.00;96020.59;5029239;28;20033;-80
2023/07/19 04:36:27;;;;;;;16.38;7.63;;;;;;;21.23;100.00;96022.56;5011170;28;20061;-79
2023/07/19 04:38:54;;;;;;;10.07;6.88;;;;;;;21.44;100.00;96018.56;5015121;28;20124;-80
2023/07/19 04:41:20;;;;;;;12.40;7.93;;;;;;;21.44;100.00;96013.22;5029101;28;20163;-79
2023/07/19 04:43:56;;;;;;;10.32;6.55;;;;;;;21.62;100.00;96013.88;5030168;28;20037;-80
2023/07/19 04:46:21;;;;;;;13.07;7.57;;;;;;;21.65;100.00;96015.28;5015796;28;20037;-79
2023/07/19 04:48:47;;;;;;;13.55;7.43;;;;;;;21.51;100.00;96019.25;5023282;28;20549;-79
2023/07/19 04:51:13;;;;;;;10.60;7.38;;;;;;;21.61;100.00;96022.97;5012088;28;20037;-79
2023/07/19 04:53:38;;;;;;;12.45;6.85;;;;;;;22.00;100.00;96025.13;5012881;28;20036;-80
2023/07/19 04:56:04;;;;;;;10.88;6.97;;;;;;;21.89;100.00;96019.56;5014179;28;20411;-79
2023/07/19 04:58:31;;;;;;;12.93;7.35;;;;;;;21.91;100.00;96021.19;5010228;28;20649;-79
2023/07/19 05:01:07;;;;;;;15.07;7.35;;;;;;;21.94;100.00;96020.72;4995033;28;20048;-79
2023/07/19 05:03:34;;;;;;;10.68;7.40;;;;;;;22.27;100.00;96012.88;5015955;28;20056;-80
2023/07/19 05:06:01;;;;;;;10.23;7.07;;;;;;;22.13;100.00;96008.78;5011980;28;20049;-80
2023/07/19 05:08:28;;;;;;;12.10;7.40;;;;;;;22.08;100.00;96017.53;5004813;28;20028;-80
2023/07/19 05:10:53;;;;;;;12.65;7.50;;;;;;;22.04;100.00;96012.91;5005750;28;20038;-79
2023/07/19 05:13:19;;;;;;;9.55;6.53;;;;;;;22.47;100.00;96000.91;5007292;28;20034;-79
2023/07/19 05:15:44;;;;;;;14.02;7.82;;;;;;;22.53;100.00;95999.94;4987356;28;20034;-79
2023/07/19 05:18:19;;;;;;;11.40;7.20;;;;;;;22.73;100.00;96002.16;5000561;28;20030;-80
2023/07/19 05:20:45;;;;;;;10.45;6.95;;;;;;;22.73;100.00;95997.63;4983978;28;20109;-80
2023/07/19 05:23:14;;;;;;;11.80;6.65;;;;;;;22.76;100.00;95999.81;4983828;28;20038;-79
2023/07/19 05:25:42;;;;;;;10.25;6.32;;;;;;;22.94;100.00;96004.19;5001629;28;20041;-79
2023/07/19 05:28:08;;;;;;;9.23;6.93;;;;;;;22.98;100.00;96004.50;4991052;28;20044;-79
2023/07/19 05:30:33;;;;;;;10.27;5.93;;;;;;;23.03;100.00;95988.50;5003341;28;20112;-80
2023/07/19 05:33:00;;;;;;;12.13;7.03;;;;;;;23.27;100.00;95994.50;5004224;28;21527;-80
2023/07/19 05:35:26;;;;;;;12.02;7.28;;;;;;;23.17;100.00;95994.34;5009557;28;20650;-80
2023/07/19 05:37:52;;;;;;;13.98;7.57;;;;;;;23.17;100.00;95983.59;5007525;28;20033;-80
2023/07/19 05:40:17;;;;;;;12.32;6.60;;;;;;;23.52;100.00;95991.38;5011489;28;20041;-80
2023/07/19 05:42:43;;;;;;;12.48;7.15;;;;;;;23.91;100.00;95992.22;5014128;28;20026;-80
2023/07/19 05:45:08;;;;;;;10.90;6.68;;;;;;;23.62;100.00;95991.53;5029839;28;20036;-80
2023/07/19 05:47:34;;;;;;;8.43;6.53;;;;;;;23.91;100.00;95997.59;5029671;28;20036;-80
2023/07/19 05:50:00;;;;;;;11.45;6.88;;;;;;;24.35;100.00;95994.88;5020486;28;20037;-79
2023/07/19 05:52:27;;;;;;;12.52;6.55;;;;;;;24.18;100.00;95991.47;5014508;28;20102;-80
2023/07/19 05:54:52;;;;;;;11.13;6.00;;;;;;;24.25;100.00;95997.47;5020544;28;20071;-80
2023/07/19 05:57:18;;;;;;;9.63;6.30;;;;;;;24.48;100.00;96001.78;5016659;28;20029;-80
2023/07/19 05:59:43;;;;;;;12.18;6.68;;;;;;;24.41;100.00;96010.03;5028644;28;20025;-80
2023/07/19 06:02:09;;;;;;;9.02;5.93;;;;;;;24.76;100.00;96002.59;5013825;28;20037;-81
2023/07/19 06:04:38;;;;;;;11.80;6.55;;;;;;;24.83;100.00;96013.94;5028159;28;20037;-81
2023/07/19 06:07:04;;;;;;;9.68;6.82;;;;;;;24.90;100.00;96007.28;5012579;28;20041;-81
2023/07/19 06:09:30;;;;;;;9.65;5.63;;;;;;;25.00;100.00;96011.13;5012494;28;20179;-80
2023/07/19 06:11:57;;;;;;;12.98;6.32;;;;;;;24.83;100.00;96008.56;5026889;28;20515;-80
2023/07/19 06:14:25;;;;;;;10.95;5.78;;;;;;;25.11;100.00;96002.91;5007233;28;20051;-80
2023/07/19 06:16:51;;;;;;;10.48;6.38;;;;;;;25.63;100.00;96012.97;5033976;28;20407;-81
2023/07/19 06:19:18;;;;;;;9.90;6.10;;;;;;;25.72;100.00;96007.09;5031628;28;20029;-81
2023/07/19 06:21:44;;;;;;;9.50;5.40;;;;;;;25.88;100.00;96011.53;5007987;28;20041;-80
2023/07/19 06:24:09;;;;;;;9.88;5.97;;;;;;;26.03;100.00;96010.81;5025364;28;20469;-81
2023/07/19 06:26:35;;;;;;;9.50;6.30;;;;;;;26.36;100.00;96022.25;5027928;28;20017;-81
2023/07/19 06:29:00;;;;;;;9.75;5.78;;;;;;;25.74;100.00;96029.22;5036475;28;20075;-81
2023/07/19 06:31:26;;;;;;;9.80;6.07;;;;;;;25.49;100.00;96027.97;5039730;28;20471;-81
2023/07/19 06:33:51;;;;;;;12.30;5.18;;;;;;;25.95;100.00;96024.75;5022965;28;20029;-81
2023/07/19 06:36:17;;;;;;;10.27;5.35;;;;;;;26.31;100.00;96012.25;5026968;28;20041;-80
2023/07/19 06:38:42;;;;;;;8.43;5.68;;;;;;;26.51;100.00;96012.34;5026909;28;20628;-81
2023/07/19 06:41:10;;;;;;;12.60;5.80;;;;;;;26.24;100.00;96012.50;5019437;28;20284;-81
2023/07/19 06:43:35;;;;;;;9.68;5.30;;;;;;;26.39;100.00;96014.47;5025407;28;20028;-80
2023/07/19 06:46:01;;;;;;;9.63;5.70;;;;;;;26.55;100.00;96018.03;5027576;28;20029;-80
2023/07/19 06:48:26;;;;;;;13.15;5.65;;;;;;;27.16;100.00;96017.31;5024051;28;20022;-81
2023/07/19 06:50:52;;;;;;;10.38;5.25;;;;;;;27.26;100.00;96025.41;5028747;28;20037;-79
2023/07/19 06:53:21;;;;;;;8.10;4.85;;;;;;;27.33;100.00;96015.19;5008551;28;20029;-80
2023/07/19 06:55:46;;;;;;;9.43;5.45;;;;;;;27.59;100.00;96021.34;5028981;28;20067;-80
2023/07/19 06:58:12;;;;;;;12.20;5.13;;;;;;;28.52;100.00;96013.81;5033371;28;20059;-80
2023/07/19 07:00:37;;;;;;;8.20;4.63;;;;;;;28.88;100.00;96015.22;5025035;28;20058;-80
2023/07/19 07:03:03;;;;;;;8.43;5.00;;;;;;;28.51;100.00;96025.72;5030189;28;20045;-83
2023/07/19 07:05:29;;;;;;;10.75;4.72;;;;;;;28.70;100.00;96026.69;5038144;28;20075;-82
2023/07/19 07:07:55;;;;;;;9.18;5.07;;;;;;;29.14;100.00;96023.16;5029902;28;20041;-82
2023/07/19 07:10:30;;;;;;;8.48;5.30;;;;;;;29.48;100.00;96020.47;5019649;28;21328;-82
2023/07/19 07:13:01;;;;;;;12.40;5.32;;;;;;;29.11;100.00;96021.06;5021275;28;20033;-80
2023/07/19 07:15:27;;;;;;;10.40;4.93;;;;;;;30.12;96.87;96028.53;5009774;28;20026;-80
2023/07/19 07:17:53;;;;;;;9.07;5.00;;;;;;;29.97;100.00;96026.78;5029465;28;20400;-80
2023/07/19 07:20:20;;;;;;;9.77;5.38;;;;;;;30.20;96.59;96036.84;5025869;28;20391;-80
2023/07/19 07:22:47;;;;;;;8.90;4.93;;;;;;;30.80;92.12;96028.25;5028554;28;20025;-80
2023/07/19 07:25:12;;;;;;;7.82;4.50;;;;;;;30.87;91.46;96027.88;5032574;28;20029;-80
2023/07/19 07:27:38;;;;;;;8.38;4.40;;;;;;;31.30;85.24;96027.75;5037733;28;20021;-81
2023/07/19 07:30:04;;;;;;;9.60;4.60;;;;;;;30.66;87.43;96030.03;5036419;28;20037;-80
2023/07/19 07:32:34;;;;;;;11.40;4.72;;;;;;;30.50;90.74;96032.94;5028792;28;20025;-80
2023/07/19 07:35:07;;;;;;;8.35;4.38;;;;;;;31.12;85.57;96018.53;5018916;28;20437;-80
2023/07/19 07:37:40;;;;;;;8.18;4.72;;;;;;;31.85;78.94;96025.19;5034468;28;20449;-80
2023/07/19 07:40:08;;;;;;;;;;;;;;;31.96;80.53;96028.56;5025147;28;20159;-80
2023/07/19 07:42:33;;;;;;;7.20;4.38;;;;;;;31.10;83.59;96029.69;5017821;28;19934;-80
2023/07/19 07:45:17;;;;;;;9.82;4.43;;;;;;;31.76;75.39;96022.38;5017524;28;20025;-80
2023/07/19 07:47:43;;;;;;;8.55;4.72;;;;;;;32.40;75.13;96020.59;5035485;28;20063;-80
2023/07/19 07:50:19;;;;;;;8.02;4.18;;;;;;;32.51;70.42;96026.66;5053680;28;20071;-81
2023/07/19 07:52:45;;;;;;;10.88;4.88;;;;;;;32.10;72.26;96034.84;5039892;28;20712;-81
2023/07/19 07:55:10;;;;;;;8.35;4.35;;;;;;;31.32;77.78;96030.97;5023410;28;20129;-80
2023/07/19 07:57:37;;;;;;;12.55;4.90;;;;;;;30.88;78.79;96040.34;5038357;28;20025;-80
2023/07/19 08:00:11;;;;;;;9.32;4.10;;;;;;;32.54;68.62;96030.69;5031511;28;20017;-80
2023/07/19 08:02:37;;;;;;;7.35;4.40;;;;;;;31.69;70.56;96030.94;5017940;28;20025;-86
2023/07/19 08:05:05;;;;;;;7.97;4.18;;;;;;;32.41;67.59;96035.03;5000422;28;20030;-80
2023/07/19 08:07:31;;;;;;;10.38;4.00;;;;;;;33.47;63.03;96025.59;4993253;28;20032;-83
2023/07/19 08:10:02;;;;;;;7.95;4.78;;;;;;;32.89;62.60;96023.66;4982358;28;20152;-81
2023/07/19 08:12:28;;;;;;;8.23;4.82;;;;;;;32.11;65.75;96023.63;4976792;28;20148;-79
2023/07/19 08:14:54;;;;;;;7.18;4.32;;;;;;;32.53;65.88;96023.63;4997467;28;20030;-79
2023/07/19 08:17:19;;;;;;;7.38;4.40;;;;;;;32.34;70.05;96029.19;4980821;28;20026;-80
2023/07/19 08:19:46;;;;;;;6.60;3.65;;;;;;;32.01;70.74;96021.13;4994542;28;20021;-79
2023/07/19 08:22:26;;;;;;;7.70;4.68;;;;;;;31.11;72.34;96025.06;4972604;28;20040;-79
2023/07/19 08:24:53;;;;;;;8.55;4.55;;;;;;;30.79;75.11;96029.34;5009047;28;20025;-79
2023/07/19 08:27:19;;;;;;;6.82;4.32;;;;;;;30.62;76.77;96024.41;5022137;28;20107;-79
2023/07/19 08:29:46;;;;;;;10.35;4.40;;;;;;;30.30;82.50;96028.59;5038135;28;20025;-79
2023/07/19 08:32:12;;;;;;;7.07;4.15;;;;;;;31.76;72.23;96018.81;5027739;28;20046;-79
2023/07/19 08:34:38;;;;;;;7.70;4.13;;;;;;;32.16;70.34;96023.53;5033990;28;20391;-79
2023/07/19 08:37:04;;;;;;;8.90;4.88;;;;;;;31.98;71.66;96024.44;5014141;28;20026;-79
2023/07/19 08:39:29;;;;;;;10.05;5.07;;;;;;;32.43;67.53;96019.22;5035997;28;20591;-80
2023/07/19 08:41:55;;;;;;;7.90;4.50;;;;;;;32.38;67.46;96020.09;5032338;28;20044;-79
2023/07/19 08:44:22;;;;;;;9.45;5.03;;;;;;;32.75;65.84;96018.25;5043031;28;20020;-79
2023/07/19 08:46:49;;;;;;;7.63;4.15;;;;;;;33.39;62.31;96011.88;5033567;28;20044;-79
2023/07/19 08:49:28;;;;;;;8.55;4.55;;;;;;;33.56;59.58;96009.28;5043026;28;20025;-80
2023/07/19 08:51:56;;;;;;;9.32;5.13;;;;;;;32.58;64.64;96008.00;5042849;28;20049;-80
2023/07/19 08:54:21;;;;;;;8.00;4.60;;;;;;;33.30;61.74;96000.91;5035368;28;20036;-80
2023/07/19 08:56:47;;;;;;;10.18;5.03;;;;;;;33.33;59.70;95994.84;5034938;28;20025;-80
2023/07/19 08:59:17;;;;;;;8.90;4.53;;;;;;;34.60;55.82;95993.34;5034865;28;20026;-81
2023/07/19 09:01:43;;;;;;;8.52;4.40;;;;;;;34.33;51.83;95994.38;5041057;28;20021;-80
2023/07/19 09:04:10;;;;;;;8.80;4.22;;;;;;;34.09;53.17;95988.53;5046607;28;20146;-80
2023/07/19 09:06:36;;;;;;;7.43;4.10;;;;;;;33.75;54.01;95990.00;5032957;28;20540;-80
2023/07/19 09:09:02;;;;;;;9.18;4.00;;;;;;;34.47;46.69;95983.34;5041080;28;20111;-81
2023/07/19 09:11:27;;;;;;;7.20;4.10;;;;;;;34.89;44.40;95991.94;5020414;28;20419;-80
2023/07/19 09:13:56;;;;;;;7.85;4.07;;;;;;;34.83;43.92;95990.47;5036294;28;20033;-81
2023/07/19 09:16:32;;;;;;;7.70;4.47;;;;;;;35.32;41.93;95983.72;5025757;28;20029;-80
2023/07/19 09:18:59;;;;;;;5.95;3.35;;;;;;;35.63;40.00;95979.97;5019488;28;20090;-80
2023/07/19 09:21:42;;;;;;;7.28;3.00;;;;;;;35.14;39.91;95979.41;5032990;28;20357;-80
2023/07/19 09:24:09;;;;;;;6.80;3.72;;;;;;;34.21;40.35;95991.50;5015915;28;20116;-80
2023/07/19 09:26:45;;;;;;;9.20;3.65;;;;;;;34.95;40.40;95983.25;5040759;28;20064;-80
2023/07/19 09:29:11;;;;;;;6.30;2.63;;;;;;;34.77;38.62;95986.28;5038538;28;20497;-80
2023/07/19 09:31:54;;;;;;;7.65;3.10;;;;;;;35.14;37.26;95974.72;5032469;28;20021;-80
2023/07/19 09:34:22;;;;;;;6.82;2.70;;;;;;;35.82;37.33;95977.69;5033077;28;20109;-80
2023/07/19 09:36:50;;;;;;;4.93;2.70;;;;;;;35.19;36.66;95984.72;5012768;28;20458;-80
2023/07/19 09:39:16;;;;;;;6.13;2.75;;;;;;;35.82;35.13;95985.09;5029280;28;20427;-80
2023/07/19 09:41:45;;;;;;;6.45;2.95;;;;;;;35.44;35.55;95983.06;5032184;28;20111;-80
2023/07/19 09:44:12;;;;;;;4.95;2.65;;;;;;;35.47;33.62;95981.59;5016824;28;20025;-80
2023/07/19 09:46:38;;;;;;;7.13;2.50;;;;;;;35.69;33.20;95977.88;5045183;28;20151;-80
2023/07/19 09:49:04;;;;;;;6.43;2.97;;;;;;;36.28;34.02;95984.22;5034275;28;20538;-79
2023/07/19 09:51:31;;;;;;;8.88;2.83;;;;;;;36.90;32.25;95977.25;5021315;28;20025;-80
2023/07/19 09:54:00;;;;;;;5.68;2.60;;;;;;;36.52;32.54;95980.09;5036115;28;20017;-80
2023/07/19 09:56:26;;;;;;;5.38;2.40;;;;;;;36.75;31.93;95975.91;5041292;28;20021;-80
2023/07/19 09:58:54;;;;;;;5.80;2.72;;;;;;;36.46;32.24;95984.94;5032135;28;20533;-80
2023/07/19 10:01:22;;;;;;;4.45;2.35;;;;;;;37.36;31.43;95969.94;5017493;28;20677;-82
2023/07/19 10:03:48;;;;;;;7.68;3.25;;;;;;;36.09;33.93;95972.91;5023412;28;20056;-82
2023/07/19 10:06:14;;;;;;;8.18;3.08;;;;;;;35.71;34.01;95970.94;5029477;28;20053;-81
2023/07/19 10:08:40;;;;;;;5.35;2.97;;;;;;;36.09;33.84;95978.41;5042391;28;20057;-81
2023/07/19 10:11:20;;;;;;;8.23;3.50;;;;;;;36.54;33.46;95969.63;5016219;28;20053;-80
2023/07/19 10:13:58;;;;;;;7.13;3.13;;;;;;;35.93;34.80;95967.16;5034236;28;20076;-80
2023/07/19 10:16:33;;;;;;;6.45;3.50;;;;;;;36.19;34.13;95969.81;5037746;28;20060;-81
2023/07/19 10:19:20;;;;;;;8.57;2.95;;;;;;;35.63;33.70;95963.56;5045939;28;20043;-82
2023/07/19 10:22:04;;;;;;;4.55;2.58;;;;;;;35.42;35.49;95968.91;5025597;28;20480;-83
2023/07/19 10:24:31;;;;;;;3.88;2.40;;;;;;;35.13;35.14;95967.66;5024166;28;20025;-82
2023/07/19 10:27:01;;;;;;;10.70;3.13;;;;;;;35.86;32.40;95962.19;5039837;28;20569;-83
2023/07/19 10:29:36;;;;;;;8.32;3.25;;;;;;;36.61;31.63;95958.91;5038629;28;20061;-83
2023/07/19 10:32:03;;;;;;;11.45;7.13;;;;;;;36.76;31.19;95958.34;5015172;28;20057;-83
2023/07/19 10:34:29;;;;;;;6.70;3.97;;;;;;;36.96;31.29;95958.66;5015399;28;20423;-82
2023/07/19 10:37:04;;;;;;;7.03;3.15;;;;;;;35.85;31.96;95966.06;5046037;28;20509;-82
2023/07/19 10:39:31;;;;;;;4.43;2.63;;;;;;;36.04;31.46;95962.16;5039223;28;20017;-81
2023/07/19 10:42:15;;;;;;;5.80;2.85;;;;;;;37.13;31.20;95958.53;5014179;28;20564;-80
2023/07/19 10:44:43;;;;;;;7.72;2.60;;;;;;;35.79;31.44;95961.13;5031071;28;20384;-80
2023/07/19 10:47:14;;;;;;;6.32;2.80;;;;;;;36.81;29.97;95969.06;5012220;28;20175;-81
2023/07/19 10:49:40;;;;;;;5.03;2.65;;;;;;;36.54;31.35;95962.19;5027885;28;20021;-81
2023/07/19 10:52:06;;;;;;;7.57;2.55;;;;;;;36.31;31.22;95972.63;5036376;28;20033;-80
2023/07/19 10:54:31;;;;;;;6.72;3.05;;;;;;;36.10;31.53;95971.78;5023796;28;20049;-81
2023/07/19 10:56:57;;;;;;;8.60;3.05;;;;;;;36.20;30.99;95960.44;5026363;28;20443;-81
2023/07/19 10:59:23;;;;;;;8.00;2.95;;;;;;;35.15;32.00;95959.16;5032597;28;20037;-81
2023/07/19 11:01:49;;;;;;;7.20;2.63;;;;;;;36.63;31.29;95958.59;5031729;28;20018;-80
2023/07/19 11:04:18;;;;;;;5.78;2.42;;;;;;;36.49;31.20;95950.66;5035348;28;20029;-81
2023/07/19 11:07:01;;;;;;;4.43;2.60;;;;;;;37.07;31.85;95943.44;5029336;28;20026;-81
2023/07/19 11:09:50;;;;;;;6.18;2.63;;;;;;;36.10;31.92;95952.63;5031772;28;20022;-82
2023/07/19 11:12:19;;;;;;;5.07;2.92;;;;;;;35.50;32.78;95953.59;5015188;28;20055;-81
2023/07/19 11:14:56;;;;;;;5.18;2.70;;;;;;;35.56;32.07;95944.94;5029439;28;20044;-81
2023/07/19 11:17:29;;;;;;;6.50;2.85;;;;;;;35.40;32.78;95947.34;5009368;28;20400;-81
2023/07/19 11:19:57;;;;;;;6.75;2.85;;;;;;;36.76;30.70;95952.84;5043389;28;20027;-81
2023/07/19 11:22:24;;;;;;;6.10;2.22;;;;;;;36.48;30.03;95952.53;5040109;28;20017;-81
2023/07/19 11:24:53;;;;;;;8.85;5.03;;;;;;;36.04;31.21;95951.19;5026026;28;20036;-80